M/V Nikos N — V7AR5 — position and weather

sailwx.info

Track history (hours):
 
Tides and Currents Weather Stations Pressure Air Temp Water Temp Dewpoint Dewpoint Depression Visibility Wind Speed Wind Dir Waves Ship Positions

M/V Nikos N

Last reported at 2017-Dec-09 03:49 UTC. Time now 2017-Dec-11 02:31 UTC.
Position N 01°15' E 104°04'.

Length 190 m; draft 12.7 m.

Type: Cargo ship. MMSI: 538007185.

Date/timePositionNaut miles runAvg speedWind from/ knotsBaromVisibWave heightAir tempDewpointWater temp
2017-Dec-09 03:49N 01°15' E 104°04'310.5
2017-Dec-09 03:30N 01°14' E 104°01'510.5
2017-Dec-09 03:01N 01°13' E 103°55'510.5
2017-Dec-09 02:30N 01°11' E 103°51'5 9.9
2017-Dec-09 02:00N 01°08' E 103°46'510.7
2017-Dec-09 01:31N 01°04' E 103°43'510.5
2017-Dec-09 01:00N 01°03' E 103°38'611.9
2017-Dec-09 00:30N 01°06' E 103°32'611.8
2017-Dec-09 00:00N 01°09' E 103°27'611.7
2017-Dec-08 23:30N 01°13' E 103°23'  
Track history (hours):
 
Tides and Currents Weather Stations Pressure Air Temp Water Temp Dewpoint Dewpoint Depression Visibility Wind Speed Wind Dir Waves Ship Positions

M/V Nikos N

Last reported at 2017-Dec-09 03:49 UTC. Time now 2017-Dec-11 02:31 UTC.
Position N 01°15' E 104°04'.

Length 190 m; draft 12.7 m.

Type: Cargo ship. MMSI: 538007185.

Date/timePositionNaut miles runAvg speedWind from/ knotsBaromVisibWave heightAir tempDewpointWater temp
2017-Dec-09 03:49N 01°15' E 104°04'310.5
2017-Dec-09 03:30N 01°14' E 104°01'510.5
2017-Dec-09 03:01N 01°13' E 103°55'510.5
2017-Dec-09 02:30N 01°11' E 103°51'5 9.9
2017-Dec-09 02:00N 01°08' E 103°46'510.7
2017-Dec-09 01:31N 01°04' E 103°43'510.5
2017-Dec-09 01:00N 01°03' E 103°38'611.9
2017-Dec-09 00:30N 01°06' E 103°32'611.8
2017-Dec-09 00:00N 01°09' E 103°27'611.7
2017-Dec-08 23:30N 01°13' E 103°23'  

Dump ship's entire track history